sensor_id;sensor_type;location;lat;lon;timestamp;temperature;humidity
1297;DHT22;641;48.492;9.184;2022-08-05T00:00:31;27.60;83.10
1297;DHT22;641;48.492;9.184;2022-08-05T00:02:56;27.50;82.30
1297;DHT22;641;48.492;9.184;2022-08-05T00:05:22;27.50;82.40
1297;DHT22;641;48.492;9.184;2022-08-05T00:07:47;27.50;82.30
1297;DHT22;641;48.492;9.184;2022-08-05T00:10:13;27.40;82.10
1297;DHT22;641;48.492;9.184;2022-08-05T00:12:39;27.40;81.70
1297;DHT22;641;48.492;9.184;2022-08-05T00:15:05;27.30;81.10
1297;DHT22;641;48.492;9.184;2022-08-05T00:17:31;27.20;81.60
1297;DHT22;641;48.492;9.184;2022-08-05T00:19:56;27.10;83.50
1297;DHT22;641;48.492;9.184;2022-08-05T00:22:22;26.90;84.60
1297;DHT22;641;48.492;9.184;2022-08-05T00:24:47;26.90;84.70
1297;DHT22;641;48.492;9.184;2022-08-05T00:27:13;26.90;84.70
1297;DHT22;641;48.492;9.184;2022-08-05T00:29:39;26.90;84.90
1297;DHT22;641;48.492;9.184;2022-08-05T00:32:05;26.90;84.70
1297;DHT22;641;48.492;9.184;2022-08-05T00:34:31;26.90;85.30
1297;DHT22;641;48.492;9.184;2022-08-05T00:36:56;26.80;85.10
1297;DHT22;641;48.492;9.184;2022-08-05T00:39:22;26.80;85.20
1297;DHT22;641;48.492;9.184;2022-08-05T00:41:48;26.80;85.10
1297;DHT22;641;48.492;9.184;2022-08-05T00:44:14;26.80;85.60
1297;DHT22;641;48.492;9.184;2022-08-05T00:46:39;26.80;85.90
1297;DHT22;641;48.492;9.184;2022-08-05T00:49:05;26.80;86.30
1297;DHT22;641;48.492;9.184;2022-08-05T00:51:30;26.70;86.50
1297;DHT22;641;48.492;9.184;2022-08-05T00:53:56;26.60;87.00
1297;DHT22;641;48.492;9.184;2022-08-05T00:56:21;26.40;87.60
1297;DHT22;641;48.492;9.184;2022-08-05T00:58:47;26.20;88.40
1297;DHT22;641;48.492;9.184;2022-08-05T01:01:13;25.90;88.90
1297;DHT22;641;48.492;9.184;2022-08-05T01:03:42;25.90;89.20
1297;DHT22;641;48.492;9.184;2022-08-05T01:06:09;25.90;89.70
1297;DHT22;641;48.492;9.184;2022-08-05T01:08:35;26.00;89.30
1297;DHT22;641;48.492;9.184;2022-08-05T01:11:19;26.10;88.50
1297;DHT22;641;48.492;9.184;2022-08-05T01:16:51;26.20;88.40
1297;DHT22;641;48.492;9.184;2022-08-05T01:22:08;26.20;88.20
1297;DHT22;641;48.492;9.184;2022-08-05T01:29:57;26.30;88.20
1297;DHT22;641;48.492;9.184;2022-08-05T01:32:26;26.30;88.20
1297;DHT22;641;48.492;9.184;2022-08-05T01:34:58;26.20;88.70
1297;DHT22;641;48.492;9.184;2022-08-05T01:37:44;26.20;88.50
1297;DHT22;641;48.492;9.184;2022-08-05T01:40:11;25.90;89.70
1297;DHT22;641;48.492;9.184;2022-08-05T01:42:40;25.60;90.50
1297;DHT22;641;48.492;9.184;2022-08-05T01:45:07;25.60;90.70
1297;DHT22;641;48.492;9.184;2022-08-05T01:47:34;25.50;90.80
1297;DHT22;641;48.492;9.184;2022-08-05T01:50:04;25.50;90.70
1297;DHT22;641;48.492;9.184;2022-08-05T01:52:33;25.50;90.50
1297;DHT22;641;48.492;9.184;2022-08-05T01:55:04;25.60;90.30
1297;DHT22;641;48.492;9.184;2022-08-05T01:57:35;25.60;90.30
1297;DHT22;641;48.492;9.184;2022-08-05T02:00:04;25.70;90.10
1297;DHT22;641;48.492;9.184;2022-08-05T02:02:31;25.70;89.00
1297;DHT22;641;48.492;9.184;2022-08-05T02:05:02;25.70;88.90
1297;DHT22;641;48.492;9.184;2022-08-05T02:07:30;25.60;88.70
1297;DHT22;641;48.492;9.184;2022-08-05T02:09:57;25.60;88.80
1297;DHT22;641;48.492;9.184;2022-08-05T02:12:41;25.60;89.40
1297;DHT22;641;48.492;9.184;2022-08-05T02:15:12;25.70;88.30
1297;DHT22;641;48.492;9.184;2022-08-05T02:18:02;25.70;87.50
1297;DHT22;641;48.492;9.184;2022-08-05T02:20:32;25.80;88.00
1297;DHT22;641;48.492;9.184;2022-08-05T02:23:02;25.80;88.70
1297;DHT22;641;48.492;9.184;2022-08-05T02:25:37;25.80;88.10
1297;DHT22;641;48.492;9.184;2022-08-05T02:28:05;25.90;87.50
1297;DHT22;641;48.492;9.184;2022-08-05T02:30:37;26.00;87.20
1297;DHT22;641;48.492;9.184;2022-08-05T02:33:04;25.90;86.80
1297;DHT22;641;48.492;9.184;2022-08-05T02:35:33;25.90;86.90
1297;DHT22;641;48.492;9.184;2022-08-05T02:37:59;26.20;87.90
1297;DHT22;641;48.492;9.184;2022-08-05T02:40:26;25.90;87.90
1297;DHT22;641;48.492;9.184;2022-08-05T02:42:53;25.90;87.20
1297;DHT22;641;48.492;9.184;2022-08-05T02:45:21;25.90;87.30
1297;DHT22;641;48.492;9.184;2022-08-05T02:47:49;25.90;87.70
1297;DHT22;641;48.492;9.184;2022-08-05T02:50:15;25.90;87.20
1297;DHT22;641;48.492;9.184;2022-08-05T02:52:43;25.60;88.50
1297;DHT22;641;48.492;9.184;2022-08-05T02:55:10;25.60;89.00
1297;DHT22;641;48.492;9.184;2022-08-05T02:57:38;25.70;88.70
1297;DHT22;641;48.492;9.184;2022-08-05T03:00:05;25.70;87.80
1297;DHT22;641;48.492;9.184;2022-08-05T03:02:35;25.70;87.10
1297;DHT22;641;48.492;9.184;2022-08-05T03:05:02;25.70;87.00
1297;DHT22;641;48.492;9.184;2022-08-05T03:07:29;25.80;87.30
1297;DHT22;641;48.492;9.184;2022-08-05T03:09:55;25.90;88.00
1297;DHT22;641;48.492;9.184;2022-08-05T03:12:32;25.90;87.80
1297;DHT22;641;48.492;9.184;2022-08-05T03:14:58;26.00;88.50
1297;DHT22;641;48.492;9.184;2022-08-05T03:17:23;25.90;87.40
1297;DHT22;641;48.492;9.184;2022-08-05T03:19:49;25.90;87.40
1297;DHT22;641;48.492;9.184;2022-08-05T03:22:15;25.80;88.00
1297;DHT22;641;48.492;9.184;2022-08-05T03:24:41;25.80;88.30
1297;DHT22;641;48.492;9.184;2022-08-05T03:27:09;25.80;88.80
1297;DHT22;641;48.492;9.184;2022-08-05T03:29:35;25.80;88.00
1297;DHT22;641;48.492;9.184;2022-08-05T03:32:01;25.80;87.00
1297;DHT22;641;48.492;9.184;2022-08-05T03:34:28;25.80;86.90
1297;DHT22;641;48.492;9.184;2022-08-05T03:36:53;25.80;87.20
1297;DHT22;641;48.492;9.184;2022-08-05T03:39:19;25.80;87.30
1297;DHT22;641;48.492;9.184;2022-08-05T03:41:44;25.80;88.30
1297;DHT22;641;48.492;9.184;2022-08-05T03:44:10;25.70;88.50
1297;DHT22;641;48.492;9.184;2022-08-05T03:46:36;25.70;88.00
1297;DHT22;641;48.492;9.184;2022-08-05T03:49:01;25.70;88.40
1297;DHT22;641;48.492;9.184;2022-08-05T03:51:35;25.70;88.20
1297;DHT22;641;48.492;9.184;2022-08-05T03:54:09;25.70;88.40
1297;DHT22;641;48.492;9.184;2022-08-05T03:56:43;25.60;88.40
1297;DHT22;641;48.492;9.184;2022-08-05T03:59:13;25.60;88.90
1297;DHT22;641;48.492;9.184;2022-08-05T04:01:43;25.50;89.50
1297;DHT22;641;48.492;9.184;2022-08-05T04:04:12;25.50;89.50
1297;DHT22;641;48.492;9.184;2022-08-05T04:06:38;25.60;89.60
1297;DHT22;641;48.492;9.184;2022-08-05T04:09:05;25.60;89.00
1297;DHT22;641;48.492;9.184;2022-08-05T04:11:35;25.60;88.80
1297;DHT22;641;48.492;9.184;2022-08-05T04:14:01;25.60;89.10
1297;DHT22;641;48.492;9.184;2022-08-05T04:16:28;25.70;89.90
1297;DHT22;641;48.492;9.184;2022-08-05T04:18:53;25.50;89.90
1297;DHT22;641;48.492;9.184;2022-08-05T04:21:19;25.40;90.10
1297;DHT22;641;48.492;9.184;2022-08-05T04:23:45;25.30;90.40
1297;DHT22;641;48.492;9.184;2022-08-05T04:26:12;25.20;90.70
1297;DHT22;641;48.492;9.184;2022-08-05T04:28:38;25.20;91.00
1297;DHT22;641;48.492;9.184;2022-08-05T04:31:04;25.30;90.80
1297;DHT22;641;48.492;9.184;2022-08-05T04:33:30;25.30;90.80
1297;DHT22;641;48.492;9.184;2022-08-05T04:35:55;25.40;90.70
1297;DHT22;641;48.492;9.184;2022-08-05T04:38:21;25.40;90.60
1297;DHT22;641;48.492;9.184;2022-08-05T04:40:47;25.50;90.60
1297;DHT22;641;48.492;9.184;2022-08-05T04:43:12;25.70;90.60
1297;DHT22;641;48.492;9.184;2022-08-05T04:45:38;25.50;90.60
1297;DHT22;641;48.492;9.184;2022-08-05T04:48:09;25.50;90.70
1297;DHT22;641;48.492;9.184;2022-08-05T04:50:46;25.60;90.80
1297;DHT22;641;48.492;9.184;2022-08-05T04:53:13;25.60;90.90
1297;DHT22;641;48.492;9.184;2022-08-05T04:55:40;25.60;90.80
1297;DHT22;641;48.492;9.184;2022-08-05T04:58:09;25.60;91.00
1297;DHT22;641;48.492;9.184;2022-08-05T05:00:36;25.30;91.30
1297;DHT22;641;48.492;9.184;2022-08-05T05:03:03;25.10;92.30
1297;DHT22;641;48.492;9.184;2022-08-05T05:05:29;24.40;92.60
1297;DHT22;641;48.492;9.184;2022-08-05T05:08:00;24.40;93.10
1297;DHT22;641;48.492;9.184;2022-08-05T05:10:25;24.30;93.10
1297;DHT22;641;48.492;9.184;2022-08-05T05:12:51;24.20;93.60
1297;DHT22;641;48.492;9.184;2022-08-05T05:15:18;23.90;94.00
1297;DHT22;641;48.492;9.184;2022-08-05T05:17:47;23.90;94.30
1297;DHT22;641;48.492;9.184;2022-08-05T05:20:14;23.90;94.30
1297;DHT22;641;48.492;9.184;2022-08-05T05:22:40;24.10;93.60
1297;DHT22;641;48.492;9.184;2022-08-05T05:25:07;24.10;92.90
1297;DHT22;641;48.492;9.184;2022-08-05T05:27:34;24.20;92.90
1297;DHT22;641;48.492;9.184;2022-08-05T05:30:01;24.20;92.20
1297;DHT22;641;48.492;9.184;2022-08-05T05:32:26;24.30;91.80
1297;DHT22;641;48.492;9.184;2022-08-05T05:34:52;24.40;92.20
1297;DHT22;641;48.492;9.184;2022-08-05T05:37:18;24.50;91.70
1297;DHT22;641;48.492;9.184;2022-08-05T05:39:43;24.60;91.60
1297;DHT22;641;48.492;9.184;2022-08-05T05:42:09;24.80;91.50
1297;DHT22;641;48.492;9.184;2022-08-05T05:44:35;25.10;91.30
1297;DHT22;641;48.492;9.184;2022-08-05T05:47:01;25.10;91.40
1297;DHT22;641;48.492;9.184;2022-08-05T05:49:26;25.20;91.40
1297;DHT22;641;48.492;9.184;2022-08-05T05:51:53;25.40;90.70
1297;DHT22;641;48.492;9.184;2022-08-05T05:54:18;25.60;90.50
1297;DHT22;641;48.492;9.184;2022-08-05T05:56:44;25.60;89.60
1297;DHT22;641;48.492;9.184;2022-08-05T05:59:09;25.70;89.90
1297;DHT22;641;48.492;9.184;2022-08-05T06:01:38;25.70;89.80
1297;DHT22;641;48.492;9.184;2022-08-05T06:04:08;25.80;90.40
1297;DHT22;641;48.492;9.184;2022-08-05T06:06:34;25.90;89.80
1297;DHT22;641;48.492;9.184;2022-08-05T06:09:02;26.10;89.60
1297;DHT22;641;48.492;9.184;2022-08-05T06:11:28;26.10;90.00
1297;DHT22;641;48.492;9.184;2022-08-05T06:13:53;26.30;90.00
1297;DHT22;641;48.492;9.184;2022-08-05T06:16:19;26.40;89.50
1297;DHT22;641;48.492;9.184;2022-08-05T06:18:45;26.50;89.00
1297;DHT22;641;48.492;9.184;2022-08-05T06:21:10;26.50;88.10
1297;DHT22;641;48.492;9.184;2022-08-05T06:23:36;26.60;88.60
1297;DHT22;641;48.492;9.184;2022-08-05T06:26:02;26.30;89.00
1297;DHT22;641;48.492;9.184;2022-08-05T06:28:27;26.40;89.40
1297;DHT22;641;48.492;9.184;2022-08-05T06:30:53;26.40;88.00
1297;DHT22;641;48.492;9.184;2022-08-05T06:33:19;26.50;89.70
1297;DHT22;641;48.492;9.184;2022-08-05T06:35:44;26.70;88.20
1297;DHT22;641;48.492;9.184;2022-08-05T06:38:10;26.90;88.00
1297;DHT22;641;48.492;9.184;2022-08-05T06:40:35;27.00;88.10
1297;DHT22;641;48.492;9.184;2022-08-05T06:43:01;26.90;88.90
1297;DHT22;641;48.492;9.184;2022-08-05T06:45:27;27.00;88.20
1297;DHT22;641;48.492;9.184;2022-08-05T06:47:52;27.20;88.20
1297;DHT22;641;48.492;9.184;2022-08-05T06:50:18;27.40;87.90
1297;DHT22;641;48.492;9.184;2022-08-05T06:52:43;27.40;88.60
1297;DHT22;641;48.492;9.184;2022-08-05T06:55:09;27.60;88.60
1297;DHT22;641;48.492;9.184;2022-08-05T06:57:35;27.80;89.30
1297;DHT22;641;48.492;9.184;2022-08-05T07:00:00;27.90;90.00
1297;DHT22;641;48.492;9.184;2022-08-05T07:02:27;28.10;89.60
1297;DHT22;641;48.492;9.184;2022-08-05T07:04:54;28.20;89.10
1297;DHT22;641;48.492;9.184;2022-08-05T07:07:19;28.10;89.40
1297;DHT22;641;48.492;9.184;2022-08-05T07:09:45;28.10;89.10
1297;DHT22;641;48.492;9.184;2022-08-05T07:12:11;28.20;89.70
1297;DHT22;641;48.492;9.184;2022-08-05T07:14:56;28.30;88.80
1297;DHT22;641;48.492;9.184;2022-08-05T07:17:40;28.50;87.70
1297;DHT22;641;48.492;9.184;2022-08-05T07:20:06;28.60;87.80
1297;DHT22;641;48.492;9.184;2022-08-05T07:22:32;28.60;88.90
1297;DHT22;641;48.492;9.184;2022-08-05T07:24:59;28.60;87.40
1297;DHT22;641;48.492;9.184;2022-08-05T07:27:25;28.50;87.50
1297;DHT22;641;48.492;9.184;2022-08-05T07:29:50;28.40;87.50
1297;DHT22;641;48.492;9.184;2022-08-05T07:32:16;28.40;87.50
1297;DHT22;641;48.492;9.184;2022-08-05T07:34:41;28.50;87.20
1297;DHT22;641;48.492;9.184;2022-08-05T07:37:07;28.50;87.70
1297;DHT22;641;48.492;9.184;2022-08-05T07:39:33;28.60;88.00
1297;DHT22;641;48.492;9.184;2022-08-05T07:41:58;28.50;88.10
1297;DHT22;641;48.492;9.184;2022-08-05T07:44:24;28.60;87.80
1297;DHT22;641;48.492;9.184;2022-08-05T07:46:49;28.30;87.20
1297;DHT22;641;48.492;9.184;2022-08-05T07:49:15;28.40;87.70
1297;DHT22;641;48.492;9.184;2022-08-05T07:51:41;28.60;84.30
1297;DHT22;641;48.492;9.184;2022-08-05T07:54:07;28.60;83.50
1297;DHT22;641;48.492;9.184;2022-08-05T07:56:33;28.70;85.00
1297;DHT22;641;48.492;9.184;2022-08-05T07:58:58;29.00;83.20
1297;DHT22;641;48.492;9.184;2022-08-05T08:01:24;29.10;83.40
1297;DHT22;641;48.492;9.184;2022-08-05T08:03:52;29.10;81.40
1297;DHT22;641;48.492;9.184;2022-08-05T08:06:17;29.10;82.00
1297;DHT22;641;48.492;9.184;2022-08-05T08:08:43;29.30;82.70
1297;DHT22;641;48.492;9.184;2022-08-05T08:11:08;29.40;81.40
1297;DHT22;641;48.492;9.184;2022-08-05T08:13:34;29.60;81.40
1297;DHT22;641;48.492;9.184;2022-08-05T08:16:00;29.70;80.40
1297;DHT22;641;48.492;9.184;2022-08-05T08:18:25;29.70;78.00
1297;DHT22;641;48.492;9.184;2022-08-05T08:20:51;29.80;78.60
1297;DHT22;641;48.492;9.184;2022-08-05T08:23:17;29.90;78.60
1297;DHT22;641;48.492;9.184;2022-08-05T08:25:43;30.00;78.30
1297;DHT22;641;48.492;9.184;2022-08-05T08:28:09;30.20;77.50
1297;DHT22;641;48.492;9.184;2022-08-05T08:30:34;30.20;76.60
1297;DHT22;641;48.492;9.184;2022-08-05T08:33:05;30.20;78.10
1297;DHT22;641;48.492;9.184;2022-08-05T08:35:31;30.40;76.00
1297;DHT22;641;48.492;9.184;2022-08-05T08:37:56;30.20;75.40
1297;DHT22;641;48.492;9.184;2022-08-05T08:40:22;30.00;75.80
1297;DHT22;641;48.492;9.184;2022-08-05T08:42:50;30.00;76.80
1297;DHT22;641;48.492;9.184;2022-08-05T08:45:20;29.90;77.00
1297;DHT22;641;48.492;9.184;2022-08-05T08:47:49;30.10;77.40
1297;DHT22;641;48.492;9.184;2022-08-05T08:50:16;30.30;77.30
1297;DHT22;641;48.492;9.184;2022-08-05T08:52:52;30.30;76.30
1297;DHT22;641;48.492;9.184;2022-08-05T08:55:19;30.40;75.60
1297;DHT22;641;48.492;9.184;2022-08-05T08:57:46;30.50;76.30
1297;DHT22;641;48.492;9.184;2022-08-05T09:00:13;30.50;76.70
1297;DHT22;641;48.492;9.184;2022-08-05T09:02:39;30.50;77.90
1297;DHT22;641;48.492;9.184;2022-08-05T09:05:05;30.70;76.40
1297;DHT22;641;48.492;9.184;2022-08-05T09:07:31;30.80;76.00
1297;DHT22;641;48.492;9.184;2022-08-05T09:09:56;31.00;76.70
1297;DHT22;641;48.492;9.184;2022-08-05T09:12:22;31.00;74.10
1297;DHT22;641;48.492;9.184;2022-08-05T09:14:48;31.00;73.80
1297;DHT22;641;48.492;9.184;2022-08-05T09:17:14;31.00;72.80
1297;DHT22;641;48.492;9.184;2022-08-05T09:19:40;31.10;73.40
1297;DHT22;641;48.492;9.184;2022-08-05T09:22:06;30.90;70.50
1297;DHT22;641;48.492;9.184;2022-08-05T09:24:34;30.70;71.40
1297;DHT22;641;48.492;9.184;2022-08-05T09:27:00;30.80;73.00
1297;DHT22;641;48.492;9.184;2022-08-05T09:29:42;30.60;71.80
1297;DHT22;641;48.492;9.184;2022-08-05T09:32:11;30.60;72.90
1297;DHT22;641;48.492;9.184;2022-08-05T09:34:52;30.70;70.80
1297;DHT22;641;48.492;9.184;2022-08-05T09:37:25;30.70;71.90
1297;DHT22;641;48.492;9.184;2022-08-05T09:39:51;30.60;71.70
1297;DHT22;641;48.492;9.184;2022-08-05T09:42:18;30.70;73.80
1297;DHT22;641;48.492;9.184;2022-08-05T09:44:47;30.90;72.40
1297;DHT22;641;48.492;9.184;2022-08-05T09:47:18;31.10;73.20
1297;DHT22;641;48.492;9.184;2022-08-05T09:49:46;31.30;72.90
1297;DHT22;641;48.492;9.184;2022-08-05T09:54:58;31.00;72.30
1297;DHT22;641;48.492;9.184;2022-08-05T09:57:29;31.20;73.40
1297;DHT22;641;48.492;9.184;2022-08-05T10:00:06;31.50;71.80
1297;DHT22;641;48.492;9.184;2022-08-05T10:02:44;31.50;70.90
1297;DHT22;641;48.492;9.184;2022-08-05T10:15:22;31.50;70.10
1297;DHT22;641;48.492;9.184;2022-08-05T10:18:08;31.70;70.20
1297;DHT22;641;48.492;9.184;2022-08-05T10:20:40;31.70;71.10
1297;DHT22;641;48.492;9.184;2022-08-05T10:23:08;31.30;72.60
1297;DHT22;641;48.492;9.184;2022-08-05T10:25:34;31.40;71.80
1297;DHT22;641;48.492;9.184;2022-08-05T10:28:00;31.30;72.50
1297;DHT22;641;48.492;9.184;2022-08-05T10:30:26;31.50;71.80
1297;DHT22;641;48.492;9.184;2022-08-05T10:32:53;31.40;73.30
1297;DHT22;641;48.492;9.184;2022-08-05T10:35:21;31.40;71.20
1297;DHT22;641;48.492;9.184;2022-08-05T10:37:47;31.60;72.10
1297;DHT22;641;48.492;9.184;2022-08-05T10:42:51;31.60;69.80
1297;DHT22;641;48.492;9.184;2022-08-05T10:45:25;31.30;71.00
1297;DHT22;641;48.492;9.184;2022-08-05T10:47:51;30.90;72.00
1297;DHT22;641;48.492;9.184;2022-08-05T10:50:17;31.10;71.30
1297;DHT22;641;48.492;9.184;2022-08-05T10:52:49;31.20;71.10
1297;DHT22;641;48.492;9.184;2022-08-05T10:55:25;31.00;70.40
1297;DHT22;641;48.492;9.184;2022-08-05T10:58:08;31.00;70.10
1297;DHT22;641;48.492;9.184;2022-08-05T11:00:35;31.10;71.00
1297;DHT22;641;48.492;9.184;2022-08-05T11:05:34;30.90;71.20
1297;DHT22;641;48.492;9.184;2022-08-05T11:08:02;31.00;72.20
1297;DHT22;641;48.492;9.184;2022-08-05T11:10:29;31.20;71.20
1297;DHT22;641;48.492;9.184;2022-08-05T11:12:56;31.20;72.00
1297;DHT22;641;48.492;9.184;2022-08-05T11:15:27;30.60;70.90
1297;DHT22;641;48.492;9.184;2022-08-05T11:20:48;30.60;70.60
1297;DHT22;641;48.492;9.184;2022-08-05T11:26:29;31.10;69.50
1297;DHT22;641;48.492;9.184;2022-08-05T11:28:55;31.30;69.00
1297;DHT22;641;48.492;9.184;2022-08-05T11:31:23;31.10;69.90
1297;DHT22;641;48.492;9.184;2022-08-05T11:33:53;30.80;69.60
1297;DHT22;641;48.492;9.184;2022-08-05T11:39:07;31.20;69.40
1297;DHT22;641;48.492;9.184;2022-08-05T11:41:33;31.50;70.50
1297;DHT22;641;48.492;9.184;2022-08-05T11:46:36;31.70;67.70
1297;DHT22;641;48.492;9.184;2022-08-05T11:49:03;31.70;68.00
1297;DHT22;641;48.492;9.184;2022-08-05T11:51:29;31.60;67.70
1297;DHT22;641;48.492;9.184;2022-08-05T11:53:55;31.70;67.80
1297;DHT22;641;48.492;9.184;2022-08-05T11:56:22;31.70;69.00
1297;DHT22;641;48.492;9.184;2022-08-05T11:58:49;32.00;70.50
1297;DHT22;641;48.492;9.184;2022-08-05T12:01:17;32.10;67.70
1297;DHT22;641;48.492;9.184;2022-08-05T12:03:45;31.90;68.40
1297;DHT22;641;48.492;9.184;2022-08-05T12:06:13;32.10;68.90
1297;DHT22;641;48.492;9.184;2022-08-05T12:08:44;32.30;68.60
1297;DHT22;641;48.492;9.184;2022-08-05T12:11:11;32.20;67.50
1297;DHT22;641;48.492;9.184;2022-08-05T12:13:55;32.30;69.10
1297;DHT22;641;48.492;9.184;2022-08-05T12:16:22;32.20;66.20
1297;DHT22;641;48.492;9.184;2022-08-05T12:18:47;32.00;68.30
1297;DHT22;641;48.492;9.184;2022-08-05T12:21:19;32.20;68.70
1297;DHT22;641;48.492;9.184;2022-08-05T12:26:39;32.20;67.30
1297;DHT22;641;48.492;9.184;2022-08-05T12:29:16;31.90;68.20
1297;DHT22;641;48.492;9.184;2022-08-05T12:34:19;32.20;66.90
1297;DHT22;641;48.492;9.184;2022-08-05T12:36:50;32.30;66.80
1297;DHT22;641;48.492;9.184;2022-08-05T12:39:16;32.50;67.10
1297;DHT22;641;48.492;9.184;2022-08-05T12:41:42;32.50;68.10
1297;DHT22;641;48.492;9.184;2022-08-05T12:44:12;32.50;67.70
1297;DHT22;641;48.492;9.184;2022-08-05T12:46:40;32.70;68.60
1297;DHT22;641;48.492;9.184;2022-08-05T12:49:11;32.90;67.10
1297;DHT22;641;48.492;9.184;2022-08-05T12:51:58;33.00;67.30
1297;DHT22;641;48.492;9.184;2022-08-05T12:54:25;33.00;66.90
1297;DHT22;641;48.492;9.184;2022-08-05T12:57:02;33.20;67.20
1297;DHT22;641;48.492;9.184;2022-08-05T12:59:42;33.30;65.70
1297;DHT22;641;48.492;9.184;2022-08-05T13:02:09;33.40;67.80
1297;DHT22;641;48.492;9.184;2022-08-05T13:04:41;33.50;66.90
1297;DHT22;641;48.492;9.184;2022-08-05T13:07:09;33.20;67.30
1297;DHT22;641;48.492;9.184;2022-08-05T13:09:38;33.40;66.30
1297;DHT22;641;48.492;9.184;2022-08-05T13:12:07;33.50;66.30
1297;DHT22;641;48.492;9.184;2022-08-05T13:14:37;33.40;66.10
1297;DHT22;641;48.492;9.184;2022-08-05T13:17:22;33.40;66.70
1297;DHT22;641;48.492;9.184;2022-08-05T13:22:38;33.50;64.30
1297;DHT22;641;48.492;9.184;2022-08-05T13:25:07;33.20;66.10
1297;DHT22;641;48.492;9.184;2022-08-05T13:27:33;33.30;67.10
1297;DHT22;641;48.492;9.184;2022-08-05T13:29:59;33.50;65.10
1297;DHT22;641;48.492;9.184;2022-08-05T13:32:26;33.50;66.40
1297;DHT22;641;48.492;9.184;2022-08-05T13:34:52;33.60;65.90
1297;DHT22;641;48.492;9.184;2022-08-05T13:37:19;33.70;66.00
1297;DHT22;641;48.492;9.184;2022-08-05T13:39:50;33.80;65.40
1297;DHT22;641;48.492;9.184;2022-08-05T13:42:20;33.90;64.70
1297;DHT22;641;48.492;9.184;2022-08-05T13:44:49;33.80;64.40
1297;DHT22;641;48.492;9.184;2022-08-05T13:47:15;33.50;65.00
1297;DHT22;641;48.492;9.184;2022-08-05T13:49:41;33.60;65.20
1297;DHT22;641;48.492;9.184;2022-08-05T13:54:39;33.90;63.80
1297;DHT22;641;48.492;9.184;2022-08-05T13:57:07;33.80;64.30
1297;DHT22;641;48.492;9.184;2022-08-05T13:59:32;33.70;66.30
1297;DHT22;641;48.492;9.184;2022-08-05T14:01:59;33.70;63.90
1297;DHT22;641;48.492;9.184;2022-08-05T14:04:33;33.70;65.20
1297;DHT22;641;48.492;9.184;2022-08-05T14:07:29;33.70;66.50
1297;DHT22;641;48.492;9.184;2022-08-05T14:09:55;33.60;64.60
1297;DHT22;641;48.492;9.184;2022-08-05T14:12:21;33.50;66.00
1297;DHT22;641;48.492;9.184;2022-08-05T14:14:46;33.30;65.30
1297;DHT22;641;48.492;9.184;2022-08-05T14:17:13;33.20;66.00
1297;DHT22;641;48.492;9.184;2022-08-05T14:19:40;33.20;65.60
1297;DHT22;641;48.492;9.184;2022-08-05T14:22:06;33.20;65.50
1297;DHT22;641;48.492;9.184;2022-08-05T14:24:31;33.20;64.80
1297;DHT22;641;48.492;9.184;2022-08-05T14:26:57;33.00;65.50
1297;DHT22;641;48.492;9.184;2022-08-05T14:29:22;32.60;66.20
1297;DHT22;641;48.492;9.184;2022-08-05T14:31:48;32.70;68.10
1297;DHT22;641;48.492;9.184;2022-08-05T14:34:14;32.80;68.30
1297;DHT22;641;48.492;9.184;2022-08-05T14:36:39;32.90;67.10
1297;DHT22;641;48.492;9.184;2022-08-05T14:39:05;33.00;68.80
1297;DHT22;641;48.492;9.184;2022-08-05T14:41:31;33.10;68.70
1297;DHT22;641;48.492;9.184;2022-08-05T14:43:57;33.10;68.50
1297;DHT22;641;48.492;9.184;2022-08-05T14:46:24;33.10;68.40
1297;DHT22;641;48.492;9.184;2022-08-05T14:48:50;33.20;68.70
1297;DHT22;641;48.492;9.184;2022-08-05T14:51:16;33.20;70.10
1297;DHT22;641;48.492;9.184;2022-08-05T14:53:42;33.20;68.90
1297;DHT22;641;48.492;9.184;2022-08-05T14:56:09;33.30;69.40
1297;DHT22;641;48.492;9.184;2022-08-05T14:58:37;33.30;70.70
1297;DHT22;641;48.492;9.184;2022-08-05T15:01:06;33.30;71.50
1297;DHT22;641;48.492;9.184;2022-08-05T15:03:32;33.20;74.80
1297;DHT22;641;48.492;9.184;2022-08-05T15:05:57;33.20;75.40
1297;DHT22;641;48.492;9.184;2022-08-05T15:08:23;33.20;70.80
1297;DHT22;641;48.492;9.184;2022-08-05T15:10:50;33.20;71.20
1297;DHT22;641;48.492;9.184;2022-08-05T15:13:15;33.00;72.90
1297;DHT22;641;48.492;9.184;2022-08-05T15:15:41;33.00;72.60
1297;DHT22;641;48.492;9.184;2022-08-05T15:18:07;33.00;72.90
1297;DHT22;641;48.492;9.184;2022-08-05T15:20:32;33.10;70.20
1297;DHT22;641;48.492;9.184;2022-08-05T15:23:09;33.10;68.10
1297;DHT22;641;48.492;9.184;2022-08-05T15:25:36;33.00;70.50
1297;DHT22;641;48.492;9.184;2022-08-05T15:28:02;32.80;73.50
1297;DHT22;641;48.492;9.184;2022-08-05T15:30:28;32.20;75.40
1297;DHT22;641;48.492;9.184;2022-08-05T15:32:57;31.90;76.00
1297;DHT22;641;48.492;9.184;2022-08-05T15:35:23;31.60;76.70
1297;DHT22;641;48.492;9.184;2022-08-05T15:37:48;31.30;77.00
1297;DHT22;641;48.492;9.184;2022-08-05T15:40:14;31.10;77.30
1297;DHT22;641;48.492;9.184;2022-08-05T15:42:39;30.70;77.50
1297;DHT22;641;48.492;9.184;2022-08-05T15:45:06;30.60;77.70
1297;DHT22;641;48.492;9.184;2022-08-05T15:47:31;30.80;77.10
1297;DHT22;641;48.492;9.184;2022-08-05T15:49:57;30.90;77.50
1297;DHT22;641;48.492;9.184;2022-08-05T15:52:23;30.90;77.00
1297;DHT22;641;48.492;9.184;2022-08-05T15:54:50;31.00;78.20
1297;DHT22;641;48.492;9.184;2022-08-05T15:57:17;31.40;78.00
1297;DHT22;641;48.492;9.184;2022-08-05T15:59:43;32.30;79.10
1297;DHT22;641;48.492;9.184;2022-08-05T16:02:08;33.20;75.40
1297;DHT22;641;48.492;9.184;2022-08-05T16:04:34;34.10;72.60
1297;DHT22;641;48.492;9.184;2022-08-05T16:07:00;34.40;73.00
1297;DHT22;641;48.492;9.184;2022-08-05T16:09:26;34.30;71.10
1297;DHT22;641;48.492;9.184;2022-08-05T16:11:52;33.90;71.90
1297;DHT22;641;48.492;9.184;2022-08-05T16:14:18;33.60;72.70
1297;DHT22;641;48.492;9.184;2022-08-05T16:16:44;33.50;73.30
1297;DHT22;641;48.492;9.184;2022-08-05T16:19:11;33.80;72.60
1297;DHT22;641;48.492;9.184;2022-08-05T16:21:37;34.30;72.10
1297;DHT22;641;48.492;9.184;2022-08-05T16:24:03;34.20;71.80
1297;DHT22;641;48.492;9.184;2022-08-05T16:26:28;34.60;72.00
1297;DHT22;641;48.492;9.184;2022-08-05T16:28:54;35.20;70.20
1297;DHT22;641;48.492;9.184;2022-08-05T16:31:19;35.70;69.40
1297;DHT22;641;48.492;9.184;2022-08-05T16:33:45;35.90;68.50
1297;DHT22;641;48.492;9.184;2022-08-05T16:36:11;36.10;67.80
1297;DHT22;641;48.492;9.184;2022-08-05T16:38:36;36.30;67.60
1297;DHT22;641;48.492;9.184;2022-08-05T16:41:02;36.50;67.60
1297;DHT22;641;48.492;9.184;2022-08-05T16:43:33;36.50;67.10
1297;DHT22;641;48.492;9.184;2022-08-05T16:46:00;36.40;67.50
1297;DHT22;641;48.492;9.184;2022-08-05T16:48:26;36.10;68.00
1297;DHT22;641;48.492;9.184;2022-08-05T16:50:52;35.90;68.00
1297;DHT22;641;48.492;9.184;2022-08-05T16:53:18;35.60;68.60
1297;DHT22;641;48.492;9.184;2022-08-05T16:55:44;35.50;68.90
1297;DHT22;641;48.492;9.184;2022-08-05T16:58:10;35.30;68.60
1297;DHT22;641;48.492;9.184;2022-08-05T17:00:35;34.90;70.30
1297;DHT22;641;48.492;9.184;2022-08-05T17:03:04;34.10;71.40
1297;DHT22;641;48.492;9.184;2022-08-05T17:05:31;33.20;73.20
1297;DHT22;641;48.492;9.184;2022-08-05T17:07:57;32.80;74.30
1297;DHT22;641;48.492;9.184;2022-08-05T17:10:23;32.60;74.70